sensor_id;sensor_type;location;lat;lon;timestamp;P1;durP1;ratioP1;P2;durP2;ratioP2
34317;SDS011;20582;52.196;20.952;2024-02-28T00:01:22;47.60;;;27.05;;
34317;SDS011;20582;52.196;20.952;2024-02-28T00:03:48;53.20;;;27.90;;
34317;SDS011;20582;52.196;20.952;2024-02-28T00:06:18;53.75;;;27.10;;
34317;SDS011;20582;52.196;20.952;2024-02-28T00:08:44;51.60;;;27.15;;
34317;SDS011;20582;52.196;20.952;2024-02-28T00:11:10;47.67;;;26.67;;
34317;SDS011;20582;52.196;20.952;2024-02-28T00:13:36;46.38;;;27.52;;
34317;SDS011;20582;52.196;20.952;2024-02-28T00:16:02;47.20;;;28.25;;
34317;SDS011;20582;52.196;20.952;2024-02-28T00:18:28;51.55;;;27.50;;
34317;SDS011;20582;52.196;20.952;2024-02-28T00:20:56;52.33;;;27.88;;
34317;SDS011;20582;52.196;20.952;2024-02-28T00:23:22;51.60;;;28.17;;
34317;SDS011;20582;52.196;20.952;2024-02-28T00:25:48;52.25;;;28.08;;
34317;SDS011;20582;52.196;20.952;2024-02-28T00:28:14;52.97;;;29.13;;
34317;SDS011;20582;52.196;20.952;2024-02-28T00:30:40;48.60;;;27.00;;
34317;SDS011;20582;52.196;20.952;2024-02-28T00:33:06;49.35;;;27.17;;
34317;SDS011;20582;52.196;20.952;2024-02-28T00:35:32;54.85;;;28.77;;
34317;SDS011;20582;52.196;20.952;2024-02-28T00:37:59;51.33;;;29.52;;
34317;SDS011;20582;52.196;20.952;2024-02-28T00:40:25;50.63;;;28.05;;
34317;SDS011;20582;52.196;20.952;2024-02-28T00:42:51;54.13;;;29.63;;
34317;SDS011;20582;52.196;20.952;2024-02-28T00:45:18;47.95;;;28.88;;
34317;SDS011;20582;52.196;20.952;2024-02-28T00:47:44;52.55;;;29.05;;
34317;SDS011;20582;52.196;20.952;2024-02-28T00:50:10;49.95;;;28.58;;
34317;SDS011;20582;52.196;20.952;2024-02-28T00:52:36;52.10;;;28.63;;
34317;SDS011;20582;52.196;20.952;2024-02-28T00:55:02;55.25;;;29.75;;
34317;SDS011;20582;52.196;20.952;2024-02-28T00:57:29;48.47;;;27.77;;
34317;SDS011;20582;52.196;20.952;2024-02-28T00:59:55;49.25;;;29.50;;
34317;SDS011;20582;52.196;20.952;2024-02-28T01:02:21;51.35;;;28.52;;
34317;SDS011;20582;52.196;20.952;2024-02-28T01:04:48;52.88;;;28.67;;
34317;SDS011;20582;52.196;20.952;2024-02-28T01:07:14;57.53;;;30.67;;
34317;SDS011;20582;52.196;20.952;2024-02-28T01:09:40;55.35;;;30.73;;
34317;SDS011;20582;52.196;20.952;2024-02-28T01:12:06;53.55;;;29.75;;
34317;SDS011;20582;52.196;20.952;2024-02-28T01:14:32;58.92;;;33.53;;
34317;SDS011;20582;52.196;20.952;2024-02-28T01:16:58;58.17;;;33.08;;
34317;SDS011;20582;52.196;20.952;2024-02-28T01:19:24;60.05;;;33.92;;
34317;SDS011;20582;52.196;20.952;2024-02-28T01:21:50;64.15;;;34.70;;
34317;SDS011;20582;52.196;20.952;2024-02-28T01:24:16;58.65;;;34.72;;
34317;SDS011;20582;52.196;20.952;2024-02-28T01:26:42;61.08;;;35.25;;
34317;SDS011;20582;52.196;20.952;2024-02-28T01:29:08;63.67;;;35.55;;
34317;SDS011;20582;52.196;20.952;2024-02-28T01:31:34;63.30;;;36.17;;
34317;SDS011;20582;52.196;20.952;2024-02-28T01:34:00;65.68;;;38.60;;
34317;SDS011;20582;52.196;20.952;2024-02-28T01:36:26;64.88;;;39.10;;
34317;SDS011;20582;52.196;20.952;2024-02-28T01:38:52;68.63;;;40.25;;
34317;SDS011;20582;52.196;20.952;2024-02-28T01:41:19;69.15;;;40.17;;
34317;SDS011;20582;52.196;20.952;2024-02-28T01:43:45;68.13;;;38.95;;
34317;SDS011;20582;52.196;20.952;2024-02-28T01:48:49;74.60;;;41.40;;
34317;SDS011;20582;52.196;20.952;2024-02-28T01:51:15;76.38;;;43.22;;
34317;SDS011;20582;52.196;20.952;2024-02-28T01:53:42;79.55;;;44.15;;
34317;SDS011;20582;52.196;20.952;2024-02-28T01:56:08;80.38;;;45.20;;
34317;SDS011;20582;52.196;20.952;2024-02-28T01:58:34;80.55;;;44.65;;
34317;SDS011;20582;52.196;20.952;2024-02-28T02:01:00;79.55;;;45.33;;
34317;SDS011;20582;52.196;20.952;2024-02-28T02:03:28;79.28;;;45.53;;
34317;SDS011;20582;52.196;20.952;2024-02-28T02:05:54;79.07;;;45.13;;
34317;SDS011;20582;52.196;20.952;2024-02-28T02:08:20;75.72;;;45.30;;
34317;SDS011;20582;52.196;20.952;2024-02-28T02:10:47;83.53;;;46.38;;
34317;SDS011;20582;52.196;20.952;2024-02-28T02:13:13;83.38;;;47.85;;
34317;SDS011;20582;52.196;20.952;2024-02-28T02:15:39;82.25;;;48.22;;
34317;SDS011;20582;52.196;20.952;2024-02-28T02:18:06;85.65;;;47.45;;
34317;SDS011;20582;52.196;20.952;2024-02-28T02:20:32;94.28;;;50.22;;
34317;SDS011;20582;52.196;20.952;2024-02-28T02:22:58;89.65;;;49.85;;
34317;SDS011;20582;52.196;20.952;2024-02-28T02:25:24;93.47;;;52.30;;
34317;SDS011;20582;52.196;20.952;2024-02-28T02:27:50;89.93;;;51.63;;
34317;SDS011;20582;52.196;20.952;2024-02-28T02:30:16;92.75;;;50.80;;
34317;SDS011;20582;52.196;20.952;2024-02-28T02:32:42;99.60;;;52.22;;
34317;SDS011;20582;52.196;20.952;2024-02-28T02:35:08;99.65;;;52.97;;
34317;SDS011;20582;52.196;20.952;2024-02-28T02:37:34;99.32;;;55.97;;
34317;SDS011;20582;52.196;20.952;2024-02-28T02:40:00;105.28;;;53.78;;
34317;SDS011;20582;52.196;20.952;2024-02-28T02:42:26;100.57;;;54.45;;
34317;SDS011;20582;52.196;20.952;2024-02-28T02:44:52;97.53;;;53.90;;
34317;SDS011;20582;52.196;20.952;2024-02-28T02:47:18;93.10;;;53.08;;
34317;SDS011;20582;52.196;20.952;2024-02-28T02:49:44;100.70;;;54.83;;
34317;SDS011;20582;52.196;20.952;2024-02-28T02:52:10;98.97;;;52.53;;
34317;SDS011;20582;52.196;20.952;2024-02-28T02:54:36;103.95;;;55.08;;
34317;SDS011;20582;52.196;20.952;2024-02-28T02:57:02;102.75;;;54.85;;
34317;SDS011;20582;52.196;20.952;2024-02-28T02:59:28;98.88;;;53.38;;
34317;SDS011;20582;52.196;20.952;2024-02-28T03:01:54;98.45;;;56.15;;
34317;SDS011;20582;52.196;20.952;2024-02-28T03:04:20;102.93;;;55.22;;
34317;SDS011;20582;52.196;20.952;2024-02-28T03:06:46;108.72;;;56.65;;
34317;SDS011;20582;52.196;20.952;2024-02-28T03:09:12;107.82;;;56.53;;
34317;SDS011;20582;52.196;20.952;2024-02-28T03:11:38;107.78;;;57.00;;
34317;SDS011;20582;52.196;20.952;2024-02-28T03:14:04;112.85;;;57.53;;
34317;SDS011;20582;52.196;20.952;2024-02-28T03:16:30;104.93;;;56.35;;
34317;SDS011;20582;52.196;20.952;2024-02-28T03:18:56;105.60;;;58.58;;
34317;SDS011;20582;52.196;20.952;2024-02-28T03:21:22;108.22;;;57.92;;
34317;SDS011;20582;52.196;20.952;2024-02-28T03:23:48;111.47;;;61.85;;
34317;SDS011;20582;52.196;20.952;2024-02-28T03:26:14;120.65;;;61.03;;
34317;SDS011;20582;52.196;20.952;2024-02-28T03:28:41;122.47;;;59.90;;
34317;SDS011;20582;52.196;20.952;2024-02-28T03:31:06;112.57;;;60.22;;
34317;SDS011;20582;52.196;20.952;2024-02-28T03:33:32;113.85;;;60.08;;
34317;SDS011;20582;52.196;20.952;2024-02-28T03:36:00;118.70;;;61.42;;
34317;SDS011;20582;52.196;20.952;2024-02-28T03:38:26;109.80;;;60.20;;
34317;SDS011;20582;52.196;20.952;2024-02-28T03:40:52;109.95;;;59.92;;
34317;SDS011;20582;52.196;20.952;2024-02-28T03:43:18;124.18;;;62.10;;
34317;SDS011;20582;52.196;20.952;2024-02-28T03:45:44;117.38;;;60.95;;
34317;SDS011;20582;52.196;20.952;2024-02-28T03:48:10;126.97;;;61.58;;
34317;SDS011;20582;52.196;20.952;2024-02-28T03:50:36;105.82;;;57.55;;
34317;SDS011;20582;52.196;20.952;2024-02-28T03:53:02;108.22;;;59.35;;
34317;SDS011;20582;52.196;20.952;2024-02-28T03:55:28;133.40;;;60.53;;
34317;SDS011;20582;52.196;20.952;2024-02-28T03:57:54;121.05;;;59.75;;
34317;SDS011;20582;52.196;20.952;2024-02-28T04:00:20;124.57;;;61.92;;
34317;SDS011;20582;52.196;20.952;2024-02-28T04:02:46;112.72;;;55.92;;
34317;SDS011;20582;52.196;20.952;2024-02-28T04:05:12;109.10;;;57.47;;
34317;SDS011;20582;52.196;20.952;2024-02-28T04:07:38;118.07;;;58.30;;
34317;SDS011;20582;52.196;20.952;2024-02-28T04:10:04;104.13;;;55.92;;
34317;SDS011;20582;52.196;20.952;2024-02-28T04:12:31;103.13;;;57.13;;
34317;SDS011;20582;52.196;20.952;2024-02-28T04:14:57;116.18;;;58.53;;
34317;SDS011;20582;52.196;20.952;2024-02-28T04:17:23;111.15;;;58.88;;
34317;SDS011;20582;52.196;20.952;2024-02-28T04:19:49;109.20;;;58.17;;
34317;SDS011;20582;52.196;20.952;2024-02-28T04:22:15;115.03;;;58.95;;
34317;SDS011;20582;52.196;20.952;2024-02-28T04:24:41;112.85;;;60.42;;
34317;SDS011;20582;52.196;20.952;2024-02-28T04:27:07;104.35;;;58.40;;
34317;SDS011;20582;52.196;20.952;2024-02-28T04:29:35;110.80;;;61.00;;
34317;SDS011;20582;52.196;20.952;2024-02-28T04:32:01;106.60;;;58.17;;
34317;SDS011;20582;52.196;20.952;2024-02-28T04:34:27;110.78;;;60.65;;
34317;SDS011;20582;52.196;20.952;2024-02-28T04:36:53;117.20;;;63.38;;
34317;SDS011;20582;52.196;20.952;2024-02-28T04:39:19;117.60;;;61.97;;
34317;SDS011;20582;52.196;20.952;2024-02-28T04:41:45;115.85;;;62.13;;
34317;SDS011;20582;52.196;20.952;2024-02-28T04:44:11;121.35;;;62.72;;
34317;SDS011;20582;52.196;20.952;2024-02-28T04:46:37;122.88;;;63.50;;
34317;SDS011;20582;52.196;20.952;2024-02-28T04:49:03;118.88;;;62.00;;
34317;SDS011;20582;52.196;20.952;2024-02-28T04:51:29;132.63;;;68.78;;
34317;SDS011;20582;52.196;20.952;2024-02-28T04:53:55;125.60;;;65.85;;
34317;SDS011;20582;52.196;20.952;2024-02-28T04:56:21;129.52;;;66.80;;
34317;SDS011;20582;52.196;20.952;2024-02-28T04:58:47;111.28;;;64.05;;
34317;SDS011;20582;52.196;20.952;2024-02-28T05:01:13;125.85;;;65.35;;
34317;SDS011;20582;52.196;20.952;2024-02-28T05:03:39;126.78;;;65.65;;
34317;SDS011;20582;52.196;20.952;2024-02-28T05:06:05;122.72;;;64.63;;
34317;SDS011;20582;52.196;20.952;2024-02-28T05:08:31;122.40;;;65.40;;
34317;SDS011;20582;52.196;20.952;2024-02-28T05:10:57;124.20;;;67.05;;
34317;SDS011;20582;52.196;20.952;2024-02-28T05:13:23;123.97;;;65.78;;
34317;SDS011;20582;52.196;20.952;2024-02-28T05:15:49;128.60;;;65.25;;
34317;SDS011;20582;52.196;20.952;2024-02-28T05:18:15;129.57;;;70.40;;
34317;SDS011;20582;52.196;20.952;2024-02-28T05:20:41;126.40;;;68.85;;
34317;SDS011;20582;52.196;20.952;2024-02-28T05:23:07;121.15;;;65.05;;
34317;SDS011;20582;52.196;20.952;2024-02-28T05:25:33;129.85;;;65.97;;
34317;SDS011;20582;52.196;20.952;2024-02-28T05:27:59;121.07;;;67.35;;
34317;SDS011;20582;52.196;20.952;2024-02-28T05:30:25;121.28;;;65.57;;
34317;SDS011;20582;52.196;20.952;2024-02-28T05:32:51;123.97;;;65.63;;
34317;SDS011;20582;52.196;20.952;2024-02-28T05:35:17;126.60;;;68.68;;
34317;SDS011;20582;52.196;20.952;2024-02-28T05:37:44;120.32;;;65.75;;
34317;SDS011;20582;52.196;20.952;2024-02-28T05:40:11;127.25;;;61.92;;
34317;SDS011;20582;52.196;20.952;2024-02-28T05:42:38;115.55;;;62.88;;
34317;SDS011;20582;52.196;20.952;2024-02-28T05:45:05;125.40;;;63.10;;
34317;SDS011;20582;52.196;20.952;2024-02-28T05:47:31;128.80;;;64.28;;
34317;SDS011;20582;52.196;20.952;2024-02-28T05:49:57;122.47;;;65.13;;
34317;SDS011;20582;52.196;20.952;2024-02-28T05:52:23;122.15;;;63.17;;
34317;SDS011;20582;52.196;20.952;2024-02-28T05:54:50;124.25;;;64.93;;
34317;SDS011;20582;52.196;20.952;2024-02-28T05:57:16;118.45;;;63.47;;
34317;SDS011;20582;52.196;20.952;2024-02-28T05:59:42;121.25;;;62.88;;
34317;SDS011;20582;52.196;20.952;2024-02-28T06:02:08;118.18;;;61.72;;
34317;SDS011;20582;52.196;20.952;2024-02-28T06:04:34;112.47;;;61.22;;
34317;SDS011;20582;52.196;20.952;2024-02-28T06:07:00;117.00;;;62.63;;
34317;SDS011;20582;52.196;20.952;2024-02-28T06:09:26;115.88;;;62.25;;
34317;SDS011;20582;52.196;20.952;2024-02-28T06:11:53;105.22;;;59.17;;
34317;SDS011;20582;52.196;20.952;2024-02-28T06:14:18;113.50;;;59.38;;
34317;SDS011;20582;52.196;20.952;2024-02-28T06:16:47;114.07;;;57.67;;
34317;SDS011;20582;52.196;20.952;2024-02-28T06:19:13;113.28;;;60.70;;
34317;SDS011;20582;52.196;20.952;2024-02-28T06:21:39;111.20;;;58.40;;
34317;SDS011;20582;52.196;20.952;2024-02-28T06:24:05;108.03;;;55.97;;
34317;SDS011;20582;52.196;20.952;2024-02-28T06:26:32;112.93;;;57.85;;
34317;SDS011;20582;52.196;20.952;2024-02-28T06:28:58;110.07;;;57.80;;
34317;SDS011;20582;52.196;20.952;2024-02-28T06:31:27;109.35;;;57.80;;
34317;SDS011;20582;52.196;20.952;2024-02-28T06:33:56;105.85;;;58.40;;
34317;SDS011;20582;52.196;20.952;2024-02-28T06:36:22;103.18;;;56.22;;
34317;SDS011;20582;52.196;20.952;2024-02-28T06:38:48;105.00;;;57.70;;
34317;SDS011;20582;52.196;20.952;2024-02-28T06:41:14;103.45;;;57.00;;
34317;SDS011;20582;52.196;20.952;2024-02-28T06:43:41;104.88;;;56.55;;
34317;SDS011;20582;52.196;20.952;2024-02-28T06:46:07;99.22;;;56.30;;
34317;SDS011;20582;52.196;20.952;2024-02-28T06:48:34;107.40;;;56.45;;
34317;SDS011;20582;52.196;20.952;2024-02-28T06:51:00;100.03;;;55.78;;
34317;SDS011;20582;52.196;20.952;2024-02-28T06:53:26;98.35;;;56.28;;
34317;SDS011;20582;52.196;20.952;2024-02-28T06:55:52;96.70;;;54.00;;
34317;SDS011;20582;52.196;20.952;2024-02-28T06:58:18;98.13;;;55.60;;
34317;SDS011;20582;52.196;20.952;2024-02-28T07:00:44;102.15;;;55.00;;
34317;SDS011;20582;52.196;20.952;2024-02-28T07:03:10;94.78;;;52.65;;
34317;SDS011;20582;52.196;20.952;2024-02-28T07:05:36;94.57;;;53.97;;
34317;SDS011;20582;52.196;20.952;2024-02-28T07:08:02;96.28;;;53.63;;
34317;SDS011;20582;52.196;20.952;2024-02-28T07:10:28;89.30;;;54.03;;
34317;SDS011;20582;52.196;20.952;2024-02-28T07:12:54;94.13;;;52.78;;
34317;SDS011;20582;52.196;20.952;2024-02-28T07:15:20;91.50;;;51.92;;
34317;SDS011;20582;52.196;20.952;2024-02-28T07:17:46;90.10;;;51.67;;
34317;SDS011;20582;52.196;20.952;2024-02-28T07:20:13;86.40;;;49.75;;
34317;SDS011;20582;52.196;20.952;2024-02-28T07:22:39;86.88;;;50.55;;
34317;SDS011;20582;52.196;20.952;2024-02-28T07:25:05;83.35;;;48.72;;
34317;SDS011;20582;52.196;20.952;2024-02-28T07:27:33;82.97;;;47.92;;
34317;SDS011;20582;52.196;20.952;2024-02-28T07:29:59;84.90;;;48.90;;
34317;SDS011;20582;52.196;20.952;2024-02-28T07:32:24;82.93;;;48.05;;
34317;SDS011;20582;52.196;20.952;2024-02-28T07:34:50;82.53;;;49.05;;
34317;SDS011;20582;52.196;20.952;2024-02-28T07:37:16;80.28;;;46.35;;
34317;SDS011;20582;52.196;20.952;2024-02-28T07:39:42;81.85;;;47.00;;
34317;SDS011;20582;52.196;20.952;2024-02-28T07:42:08;77.25;;;49.17;;
34317;SDS011;20582;52.196;20.952;2024-02-28T07:44:34;81.15;;;48.15;;
34317;SDS011;20582;52.196;20.952;2024-02-28T07:47:00;80.28;;;48.08;;
34317;SDS011;20582;52.196;20.952;2024-02-28T07:49:26;76.72;;;46.65;;
34317;SDS011;20582;52.196;20.952;2024-02-28T07:51:52;80.57;;;47.72;;
34317;SDS011;20582;52.196;20.952;2024-02-28T07:54:18;80.60;;;44.97;;
34317;SDS011;20582;52.196;20.952;2024-02-28T07:56:44;75.45;;;44.03;;
34317;SDS011;20582;52.196;20.952;2024-02-28T07:59:10;72.80;;;45.83;;
34317;SDS011;20582;52.196;20.952;2024-02-28T08:01:36;69.88;;;43.90;;
34317;SDS011;20582;52.196;20.952;2024-02-28T08:04:04;75.35;;;45.90;;
34317;SDS011;20582;52.196;20.952;2024-02-28T08:06:30;72.15;;;43.60;;
34317;SDS011;20582;52.196;20.952;2024-02-28T08:08:58;74.32;;;45.25;;
34317;SDS011;20582;52.196;20.952;2024-02-28T08:11:24;71.60;;;44.53;;
34317;SDS011;20582;52.196;20.952;2024-02-28T08:13:50;73.28;;;44.70;;
34317;SDS011;20582;52.196;20.952;2024-02-28T08:16:17;75.95;;;46.55;;
34317;SDS011;20582;52.196;20.952;2024-02-28T08:18:43;72.15;;;45.25;;
34317;SDS011;20582;52.196;20.952;2024-02-28T08:21:09;71.00;;;44.75;;
34317;SDS011;20582;52.196;20.952;2024-02-28T08:23:35;75.57;;;45.65;;
34317;SDS011;20582;52.196;20.952;2024-02-28T08:26:01;75.22;;;44.83;;
34317;SDS011;20582;52.196;20.952;2024-02-28T08:28:28;72.93;;;45.35;;
34317;SDS011;20582;52.196;20.952;2024-02-28T08:30:54;68.43;;;43.80;;
34317;SDS011;20582;52.196;20.952;2024-02-28T08:33:20;72.85;;;44.90;;
34317;SDS011;20582;52.196;20.952;2024-02-28T08:35:46;74.78;;;45.00;;
34317;SDS011;20582;52.196;20.952;2024-02-28T08:38:15;77.72;;;46.50;;
34317;SDS011;20582;52.196;20.952;2024-02-28T08:40:41;81.03;;;46.83;;
34317;SDS011;20582;52.196;20.952;2024-02-28T08:43:07;72.82;;;45.83;;
34317;SDS011;20582;52.196;20.952;2024-02-28T08:45:33;79.45;;;47.10;;
34317;SDS011;20582;52.196;20.952;2024-02-28T08:47:59;86.47;;;48.55;;
34317;SDS011;20582;52.196;20.952;2024-02-28T08:50:26;77.45;;;48.63;;
34317;SDS011;20582;52.196;20.952;2024-02-28T08:52:53;78.25;;;46.88;;
34317;SDS011;20582;52.196;20.952;2024-02-28T08:55:19;75.55;;;46.40;;
34317;SDS011;20582;52.196;20.952;2024-02-28T08:57:46;78.85;;;47.17;;
34317;SDS011;20582;52.196;20.952;2024-02-28T09:00:12;82.97;;;48.47;;
34317;SDS011;20582;52.196;20.952;2024-02-28T09:02:40;77.03;;;45.88;;
34317;SDS011;20582;52.196;20.952;2024-02-28T09:05:06;73.55;;;45.42;;
34317;SDS011;20582;52.196;20.952;2024-02-28T09:07:34;69.78;;;43.28;;
34317;SDS011;20582;52.196;20.952;2024-02-28T09:10:03;70.28;;;43.80;;
34317;SDS011;20582;52.196;20.952;2024-02-28T09:12:30;67.97;;;42.22;;
34317;SDS011;20582;52.196;20.952;2024-02-28T09:14:55;69.53;;;42.90;;
34317;SDS011;20582;52.196;20.952;2024-02-28T09:17:22;65.45;;;40.78;;
34317;SDS011;20582;52.196;20.952;2024-02-28T09:19:49;67.15;;;40.22;;
34317;SDS011;20582;52.196;20.952;2024-02-28T09:22:15;65.85;;;39.78;;
34317;SDS011;20582;52.196;20.952;2024-02-28T09:24:42;63.90;;;38.75;;
34317;SDS011;20582;52.196;20.952;2024-02-28T09:27:08;66.50;;;39.92;;
34317;SDS011;20582;52.196;20.952;2024-02-28T09:29:34;67.47;;;38.65;;
34317;SDS011;20582;52.196;20.952;2024-02-28T09:32:00;60.03;;;38.20;;
34317;SDS011;20582;52.196;20.952;2024-02-28T09:34:26;60.38;;;36.85;;
34317;SDS011;20582;52.196;20.952;2024-02-28T09:36:52;62.80;;;38.33;;
34317;SDS011;20582;52.196;20.952;2024-02-28T09:39:18;60.63;;;38.70;;
34317;SDS011;20582;52.196;20.952;2024-02-28T09:41:46;62.67;;;37.25;;
34317;SDS011;20582;52.196;20.952;2024-02-28T09:44:14;63.80;;;38.92;;
34317;SDS011;20582;52.196;20.952;2024-02-28T09:46:41;64.22;;;38.17;;
34317;SDS011;20582;52.196;20.952;2024-02-28T09:49:07;56.75;;;35.88;;
34317;SDS011;20582;52.196;20.952;2024-02-28T09:51:35;55.28;;;35.00;;
34317;SDS011;20582;52.196;20.952;2024-02-28T09:54:04;54.78;;;35.00;;
34317;SDS011;20582;52.196;20.952;2024-02-28T09:56:31;58.30;;;36.47;;
34317;SDS011;20582;52.196;20.952;2024-02-28T09:58:57;57.33;;;35.92;;
34317;SDS011;20582;52.196;20.952;2024-02-28T10:01:23;58.92;;;35.25;;
34317;SDS011;20582;52.196;20.952;2024-02-28T10:03:51;55.88;;;34.88;;
34317;SDS011;20582;52.196;20.952;2024-02-28T10:06:18;55.30;;;33.97;;
34317;SDS011;20582;52.196;20.952;2024-02-28T10:08:44;53.33;;;33.78;;
34317;SDS011;20582;52.196;20.952;2024-02-28T10:11:19;57.72;;;34.38;;
34317;SDS011;20582;52.196;20.952;2024-02-28T10:13:46;57.97;;;36.63;;
34317;SDS011;20582;52.196;20.952;2024-02-28T10:16:12;53.70;;;34.55;;
34317;SDS011;20582;52.196;20.952;2024-02-28T10:18:40;57.17;;;33.80;;
34317;SDS011;20582;52.196;20.952;2024-02-28T10:21:06;58.83;;;34.10;;
34317;SDS011;20582;52.196;20.952;2024-02-28T10:23:32;60.20;;;35.28;;
34317;SDS011;20582;52.196;20.952;2024-02-28T10:26:00;62.67;;;37.92;;
34317;SDS011;20582;52.196;20.952;2024-02-28T10:28:30;59.38;;;36.40;;
34317;SDS011;20582;52.196;20.952;2024-02-28T10:30:56;57.83;;;36.17;;
34317;SDS011;20582;52.196;20.952;2024-02-28T10:33:25;61.58;;;36.38;;
34317;SDS011;20582;52.196;20.952;2024-02-28T10:38:19;61.45;;;36.08;;
34317;SDS011;20582;52.196;20.952;2024-02-28T10:40:46;60.47;;;36.72;;
34317;SDS011;20582;52.196;20.952;2024-02-28T10:43:12;62.10;;;36.92;;
34317;SDS011;20582;52.196;20.952;2024-02-28T10:45:42;59.40;;;36.42;;
34317;SDS011;20582;52.196;20.952;2024-02-28T10:48:08;56.58;;;35.88;;
34317;SDS011;20582;52.196;20.952;2024-02-28T10:50:35;61.75;;;35.80;;
34317;SDS011;20582;52.196;20.952;2024-02-28T10:53:04;58.92;;;35.25;;
34317;SDS011;20582;52.196;20.952;2024-02-28T10:55:38;59.67;;;36.63;;
34317;SDS011;20582;52.196;20.952;2024-02-28T10:58:08;57.72;;;35.55;;
34317;SDS011;20582;52.196;20.952;2024-02-28T11:00:35;59.53;;;36.70;;
34317;SDS011;20582;52.196;20.952;2024-02-28T11:03:04;59.67;;;35.92;;
34317;SDS011;20582;52.196;20.952;2024-02-28T11:05:40;60.10;;;35.78;;
34317;SDS011;20582;52.196;20.952;2024-02-28T11:08:10;60.60;;;36.20;;
34317;SDS011;20582;52.196;20.952;2024-02-28T11:10:42;59.83;;;35.43;;
34317;SDS011;20582;52.196;20.952;2024-02-28T11:13:20;52.83;;;34.85;;
34317;SDS011;20582;52.196;20.952;2024-02-28T11:15:46;60.00;;;35.78;;
34317;SDS011;20582;52.196;20.952;2024-02-28T11:18:12;59.35;;;35.13;;
34317;SDS011;20582;52.196;20.952;2024-02-28T11:20:38;54.08;;;35.05;;
34317;SDS011;20582;52.196;20.952;2024-02-28T11:23:07;59.17;;;35.92;;
34317;SDS011;20582;52.196;20.952;2024-02-28T11:25:34;59.97;;;36.10;;
34317;SDS011;20582;52.196;20.952;2024-02-28T11:28:00;57.28;;;34.97;;
34317;SDS011;20582;52.196;20.952;2024-02-28T11:30:26;60.70;;;36.75;;
34317;SDS011;20582;52.196;20.952;2024-02-28T11:32:52;62.53;;;37.33;;
34317;SDS011;20582;52.196;20.952;2024-02-28T11:35:21;63.58;;;38.20;;
34317;SDS011;20582;52.196;20.952;2024-02-28T11:37:47;69.13;;;39.63;;
34317;SDS011;20582;52.196;20.952;2024-02-28T11:40:16;69.07;;;39.10;;
34317;SDS011;20582;52.196;20.952;2024-02-28T11:42:42;70.75;;;40.25;;
34317;SDS011;20582;52.196;20.952;2024-02-28T11:45:11;69.38;;;40.88;;
34317;SDS011;20582;52.196;20.952;2024-02-28T11:47:37;71.32;;;40.15;;
34317;SDS011;20582;52.196;20.952;2024-02-28T11:50:03;71.72;;;41.63;;
34317;SDS011;20582;52.196;20.952;2024-02-28T11:52:30;81.35;;;44.08;;
34317;SDS011;20582;52.196;20.952;2024-02-28T11:54:56;79.28;;;43.50;;
34317;SDS011;20582;52.196;20.952;2024-02-28T11:57:22;79.28;;;44.97;;
34317;SDS011;20582;52.196;20.952;2024-02-28T11:59:48;87.65;;;47.83;;
34317;SDS011;20582;52.196;20.952;2024-02-28T12:02:14;99.38;;;54.63;;
34317;SDS011;20582;52.196;20.952;2024-02-28T12:04:41;105.28;;;58.42;;
34317;SDS011;20582;52.196;20.952;2024-02-28T12:07:07;114.35;;;62.22;;
34317;SDS011;20582;52.196;20.952;2024-02-28T12:09:34;106.28;;;61.78;;
34317;SDS011;20582;52.196;20.952;2024-02-28T12:12:00;107.03;;;59.50;;
34317;SDS011;20582;52.196;20.952;2024-02-28T12:14:27;106.47;;;57.58;;
34317;SDS011;20582;52.196;20.952;2024-02-28T12:16:53;109.30;;;57.53;;
34317;SDS011;20582;52.196;20.952;2024-02-28T12:19:19;99.57;;;55.38;;
34317;SDS011;20582;52.196;20.952;2024-02-28T12:21:45;100.95;;;57.30;;
34317;SDS011;20582;52.196;20.952;2024-02-28T12:24:13;102.78;;;56.47;;
34317;SDS011;20582;52.196;20.952;2024-02-28T12:26:39;96.03;;;54.22;;
34317;SDS011;20582;52.196;20.952;2024-02-28T12:29:05;104.15;;;55.10;;
34317;SDS011;20582;52.196;20.952;2024-02-28T12:31:31;95.35;;;53.65;;
34317;SDS011;20582;52.196;20.952;2024-02-28T12:33:57;95.30;;;51.50;;
34317;SDS011;20582;52.196;20.952;2024-02-28T12:36:23;97.88;;;53.03;;
34317;SDS011;20582;52.196;20.952;2024-02-28T12:38:50;93.05;;;51.80;;
34317;SDS011;20582;52.196;20.952;2024-02-28T12:41:16;95.03;;;51.15;;
34317;SDS011;20582;52.196;20.952;2024-02-28T12:43:42;85.55;;;49.05;;
34317;SDS011;20582;52.196;20.952;2024-02-28T12:46:08;87.93;;;49.83;;
34317;SDS011;20582;52.196;20.952;2024-02-28T12:48:38;85.20;;;50.20;;
34317;SDS011;20582;52.196;20.952;2024-02-28T12:51:04;86.28;;;50.30;;
34317;SDS011;20582;52.196;20.952;2024-02-28T12:53:31;80.88;;;47.53;;
34317;SDS011;20582;52.196;20.952;2024-02-28T12:55:57;75.75;;;45.00;;
34317;SDS011;20582;52.196;20.952;2024-02-28T12:58:23;80.47;;;44.90;;
34317;SDS011;20582;52.196;20.952;2024-02-28T13:00:49;78.22;;;44.20;;
34317;SDS011;20582;52.196;20.952;2024-02-28T13:03:15;78.88;;;44.97;;
34317;SDS011;20582;52.196;20.952;2024-02-28T13:05:42;77.65;;;43.30;;
34317;SDS011;20582;52.196;20.952;2024-02-28T13:08:08;76.32;;;42.28;;
34317;SDS011;20582;52.196;20.952;2024-02-28T13:10:35;74.72;;;40.88;;
34317;SDS011;20582;52.196;20.952;2024-02-28T13:13:04;77.40;;;41.75;;
34317;SDS011;20582;52.196;20.952;2024-02-28T13:15:31;78.68;;;42.80;;
34317;SDS011;20582;52.196;20.952;2024-02-28T13:17:57;79.05;;;42.38;;
34317;SDS011;20582;52.196;20.952;2024-02-28T13:20:23;77.85;;;41.13;;
34317;SDS011;20582;52.196;20.952;2024-02-28T13:22:50;74.32;;;40.40;;
34317;SDS011;20582;52.196;20.952;2024-02-28T13:25:16;73.72;;;39.45;;
34317;SDS011;20582;52.196;20.952;2024-02-28T13:27:44;76.63;;;39.53;;
34317;SDS011;20582;52.196;20.952;2024-02-28T13:30:11;80.88;;;39.67;;
34317;SDS011;20582;52.196;20.952;2024-02-28T13:32:38;76.35;;;39.05;;
34317;SDS011;20582;52.196;20.952;2024-02-28T13:35:04;76.75;;;38.25;;
34317;SDS011;20582;52.196;20.952;2024-02-28T13:37:30;76.03;;;38.92;;
34317;SDS011;20582;52.196;20.952;2024-02-28T13:39:58;70.40;;;37.10;;
34317;SDS011;20582;52.196;20.952;2024-02-28T13:42:23;74.88;;;37.28;;
34317;SDS011;20582;52.196;20.952;2024-02-28T13:44:50;70.55;;;34.65;;
34317;SDS011;20582;52.196;20.952;2024-02-28T13:47:16;69.72;;;35.63;;
34317;SDS011;20582;52.196;20.952;2024-02-28T13:49:42;66.72;;;35.25;;
34317;SDS011;20582;52.196;20.952;2024-02-28T13:52:08;72.63;;;34.72;;
34317;SDS011;20582;52.196;20.952;2024-02-28T13:54:34;70.47;;;37.45;;
34317;SDS011;20582;52.196;20.952;2024-02-28T13:57:00;74.00;;;35.65;;
34317;SDS011;20582;52.196;20.952;2024-02-28T13:59:30;77.65;;;36.83;;
34317;SDS011;20582;52.196;20.952;2024-02-28T14:01:56;68.28;;;35.47;;
34317;SDS011;20582;52.196;20.952;2024-02-28T14:04:22;74.18;;;36.28;;
34317;SDS011;20582;52.196;20.952;2024-02-28T14:06:48;79.22;;;36.90;;